Time;durP1;ratioP1;P1;durP2;ratioP2;P2;SDS_P1;SDS_P2;PMS_P1;PMS_P2;Temp;Humidity;BMP_temperature;BMP_pressure;BME280_temperature;BME280_humidity;BME280_pressure;Samples;Min_cycle;Max_cycle;Signal;HPM_P1;HPM_P2
2022/01/17 00:02:24;;;;;;;;;32.75;29.75;;;;;;;;6125467;23;51120;-48
2022/01/17 00:05:08;;;;;;;;;35.50;32.00;;;;;;;;6127768;23;50984;-46
2022/01/17 00:07:52;;;;;;;;;46.50;35.00;;;;;;;;6126297;23;51055;-47
2022/01/17 00:10:37;;;;;;;;;40.25;31.75;;;;;;;;6126787;23;51006;-48
2022/01/17 00:13:25;;;;;;;;;39.75;33.50;;;;;;;;6124709;23;51154;-47
2022/01/17 00:16:13;;;;;;;;;42.25;32.50;;;;;;;;6124003;23;51402;-47
2022/01/17 00:19:18;;;;;;;;;44.50;34.00;;;;;;;;6128139;23;51625;-48
2022/01/17 00:22:03;;;;;;;;;49.00;36.50;;;;;;;;6124623;23;51088;-50
2022/01/17 00:24:47;;;;;;;;;49.50;38.25;;;;;;;;6125636;23;51152;-50
2022/01/17 00:27:32;;;;;;;;;50.25;40.25;;;;;;;;6127011;23;51028;-47
2022/01/17 00:30:17;;;;;;;;;49.00;39.50;;;;;;;;6124463;23;51072;-47
2022/01/17 00:33:01;;;;;;;;;51.50;41.00;;;;;;;;6125749;23;51020;-47
2022/01/17 00:35:46;;;;;;;;;48.75;40.50;;;;;;;;6127590;23;51084;-48
2022/01/17 00:38:30;;;;;;;;;52.00;42.25;;;;;;;;6127211;23;51024;-47
2022/01/17 00:41:14;;;;;;;;;48.75;40.00;;;;;;;;6123126;23;51020;-48
2022/01/17 00:43:59;;;;;;;;;49.75;40.00;;;;;;;;6128342;23;51108;-46
2022/01/17 00:46:43;;;;;;;;;52.25;41.25;;;;;;;;6126816;23;51084;-46
2022/01/17 00:49:28;;;;;;;;;55.50;43.00;;;;;;;;6127905;23;51045;-48
2022/01/17 00:52:12;;;;;;;;;52.50;42.75;;;;;;;;6127599;23;51472;-48
2022/01/17 00:54:56;;;;;;;;;56.50;45.25;;;;;;;;6127442;23;50940;-48
2022/01/17 00:57:41;;;;;;;;;55.75;43.00;;;;;;;;6120771;23;51223;-46
2022/01/17 01:00:26;;;;;;;;;57.75;43.75;;;;;;;;6126998;23;51101;-47
2022/01/17 01:03:10;;;;;;;;;61.00;46.50;;;;;;;;6125231;23;51381;-50
2022/01/17 01:05:54;;;;;;;;;61.25;46.25;;;;;;;;6126129;23;51059;-49
2022/01/17 01:08:39;;;;;;;;;61.00;47.00;;;;;;;;6127770;23;51297;-45
2022/01/17 01:11:30;;;;;;;;;58.00;45.25;;;;;;;;6127431;23;51027;-49
2022/01/17 01:14:14;;;;;;;;;62.25;50.00;;;;;;;;6130064;23;51111;-47
2022/01/17 01:17:07;;;;;;;;;58.75;44.50;;;;;;;;6128767;23;51439;-49
2022/01/17 01:20:00;;;;;;;;;61.25;46.75;;;;;;;;6128721;23;51336;-49
2022/01/17 01:28:50;;;;;;;;;57.00;46.00;;;;;;;;6127929;23;51409;-48
2022/01/17 01:31:44;;;;;;;;;61.00;46.75;;;;;;;;6129267;23;51127;-48
2022/01/17 01:34:39;;;;;;;;;57.25;45.00;;;;;;;;6129622;23;51584;-45
2022/01/17 01:37:23;;;;;;;;;57.25;45.00;;;;;;;;6127609;23;51107;-47
2022/01/17 01:40:08;;;;;;;;;52.00;41.00;;;;;;;;6129847;23;50989;-50
2022/01/17 01:42:53;;;;;;;;;55.75;43.50;;;;;;;;6128893;23;51413;-49
2022/01/17 01:45:37;;;;;;;;;55.75;45.00;;;;;;;;6128564;23;51040;-50
2022/01/17 01:48:22;;;;;;;;;52.75;43.00;;;;;;;;6127411;23;51580;-50
2022/01/17 01:51:08;;;;;;;;;53.25;42.50;;;;;;;;6128920;23;51046;-49
2022/01/17 01:53:52;;;;;;;;;52.50;40.50;;;;;;;;6125535;23;51469;-50
2022/01/17 01:56:37;;;;;;;;;52.00;40.50;;;;;;;;6127457;23;51156;-49
2022/01/17 01:59:22;;;;;;;;;50.75;40.75;;;;;;;;6127239;23;51056;-48
2022/01/17 02:02:07;;;;;;;;;50.00;40.00;;;;;;;;6127345;23;51344;-49
2022/01/17 02:04:51;;;;;;;;;49.75;40.00;;;;;;;;6128960;23;51072;-49
2022/01/17 02:07:36;;;;;;;;;45.50;35.50;;;;;;;;6126975;23;51464;-53
2022/01/17 02:10:20;;;;;;;;;48.75;38.25;;;;;;;;6128845;23;51108;-50
2022/01/17 02:13:04;;;;;;;;;49.25;38.00;;;;;;;;6126885;23;51222;-51
2022/01/17 02:15:49;;;;;;;;;50.75;41.00;;;;;;;;6129308;23;50952;-47
2022/01/17 02:18:34;;;;;;;;;45.50;37.50;;;;;;;;6127963;23;51043;-50
2022/01/17 02:21:31;;;;;;;;;45.25;37.50;;;;;;;;6129131;23;51036;-49
2022/01/17 02:24:18;;;;;;;;;49.25;39.00;;;;;;;;6128758;23;51013;-49
2022/01/17 02:27:02;;;;;;;;;51.25;39.50;;;;;;;;6128798;23;51032;-52
2022/01/17 02:29:47;;;;;;;;;48.75;39.75;;;;;;;;6128791;23;51068;-50
2022/01/17 02:32:31;;;;;;;;;49.50;39.75;;;;;;;;6127579;23;51476;-54
2022/01/17 02:35:17;;;;;;;;;49.75;39.25;;;;;;;;6128591;23;51029;-51
2022/01/17 02:38:01;;;;;;;;;50.25;40.50;;;;;;;;6128722;23;51032;-47
2022/01/17 02:40:45;;;;;;;;;50.00;40.50;;;;;;;;6125246;23;51032;-48
2022/01/17 02:43:31;;;;;;;;;53.00;41.00;;;;;;;;6128157;23;51528;-49
2022/01/17 02:46:24;;;;;;;;;47.25;39.00;;;;;;;;6128551;23;51037;-50
2022/01/17 02:49:09;;;;;;;;;45.00;37.25;;;;;;;;6129756;23;51044;-47
2022/01/17 02:51:54;;;;;;;;;52.00;39.50;;;;;;;;6127999;23;51009;-46
2022/01/17 02:54:38;;;;;;;;;46.75;37.00;;;;;;;;6129077;23;51066;-50
2022/01/17 02:57:25;;;;;;;;;46.25;37.25;;;;;;;;6128859;23;51029;-50
2022/01/17 03:00:09;;;;;;;;;49.50;39.25;;;;;;;;6129344;23;51052;-50
2022/01/17 03:02:54;;;;;;;;;46.50;38.00;;;;;;;;6128762;23;51060;-48
2022/01/17 03:05:39;;;;;;;;;49.00;39.00;;;;;;;;6128651;23;51049;-48
2022/01/17 03:08:24;;;;;;;;;47.00;38.25;;;;;;;;6129298;23;51013;-47
2022/01/17 03:11:13;;;;;;;;;40.25;36.00;;;;;;;;6128899;23;51064;-48
2022/01/17 06:16:36;;;;;;;;;63.50;47.00;;;;;;;;4358538;32;51184;-43
2022/01/17 06:19:21;;;;;;;;;59.25;45.50;;;;;;;;5097161;27;51233;-43
2022/01/17 06:22:07;;;;;;;;;70.25;53.00;;;;;;;;5090904;27;51570;-45
2022/01/17 06:24:51;;;;;;;;;67.50;51.50;;;;;;;;5096891;27;51066;-43
2022/01/17 06:27:36;;;;;;;;;68.00;51.50;;;;;;;;5096672;27;51749;-46
2022/01/17 06:30:20;;;;;;;;;65.00;48.25;;;;;;;;5097092;27;51365;-43
2022/01/17 06:33:04;;;;;;;;;65.00;49.50;;;;;;;;5092931;27;51044;-43
2022/01/17 06:35:49;;;;;;;;;61.25;48.50;;;;;;;;5095827;27;51058;-46
2022/01/17 06:38:33;;;;;;;;;65.00;51.00;;;;;;;;5096867;27;51543;-43
2022/01/17 06:41:18;;;;;;;;;64.00;49.75;;;;;;;;5097116;27;51434;-45
2022/01/17 06:44:02;;;;;;;;;69.50;53.75;;;;;;;;5093474;27;50998;-43
2022/01/17 06:46:47;;;;;;;;;64.25;49.50;;;;;;;;5095816;27;51025;-44
2022/01/17 06:49:31;;;;;;;;;71.00;54.50;;;;;;;;5096135;27;51070;-44
2022/01/17 06:52:15;;;;;;;;;68.50;50.25;;;;;;;;5092919;27;51656;-44
2022/01/17 06:55:00;;;;;;;;;61.75;48.00;;;;;;;;5095742;27;51176;-44
2022/01/17 06:57:44;;;;;;;;;65.25;50.50;;;;;;;;5096282;27;51127;-44
2022/01/17 07:00:29;;;;;;;;;60.25;45.00;;;;;;;;5095977;27;51747;-43
2022/01/17 07:03:14;;;;;;;;;58.00;45.25;;;;;;;;5093307;27;51377;-43
2022/01/17 07:05:58;;;;;;;;;61.50;45.50;;;;;;;;5097155;27;51118;-43
2022/01/17 07:08:45;;;;;;;;;62.00;49.00;;;;;;;;5096338;27;51091;-43
2022/01/17 07:11:29;;;;;;;;;62.00;47.00;;;;;;;;5093158;27;51512;-43
2022/01/17 07:14:13;;;;;;;;;58.50;46.00;;;;;;;;5090137;27;51023;-42
2022/01/17 07:16:58;;;;;;;;;58.00;43.75;;;;;;;;5085462;27;51324;-45
2022/01/17 07:19:42;;;;;;;;;56.00;44.00;;;;;;;;5082164;27;50977;-44
2022/01/17 07:22:27;;;;;;;;;53.75;40.75;;;;;;;;5079180;27;51167;-43
2022/01/17 07:25:11;;;;;;;;;52.50;40.25;;;;;;;;5084905;27;51555;-44
2022/01/17 07:27:57;;;;;;;;;49.75;41.00;;;;;;;;5087051;27;51132;-44
2022/01/17 07:30:41;;;;;;;;;50.75;40.75;;;;;;;;5081648;27;51256;-42
2022/01/17 07:33:28;;;;;;;;;42.25;35.75;;;;;;;;5084664;27;51173;-42
2022/01/17 07:36:19;;;;;;;;;52.25;39.75;;;;;;;;5087629;27;51564;-43
2022/01/17 07:39:03;;;;;;;;;52.25;44.00;;;;;;;;5086053;27;51140;-44
2022/01/17 07:41:48;;;;;;;;;53.50;40.50;;;;;;;;5081652;27;51617;-44
2022/01/17 07:44:34;;;;;;;;;52.00;40.00;;;;;;;;5086496;27;51147;-43
2022/01/17 07:47:25;;;;;;;;;51.50;40.25;;;;;;;;5088651;27;51116;-42
2022/01/17 07:50:12;;;;;;;;;52.00;40.00;;;;;;;;5080394;27;51124;-45
2022/01/17 07:52:56;;;;;;;;;58.75;46.00;;;;;;;;5087192;27;51657;-43
2022/01/17 07:55:41;;;;;;;;;57.25;43.50;;;;;;;;5087727;27;51114;-43
2022/01/17 07:58:26;;;;;;;;;60.50;46.25;;;;;;;;5087367;27;51111;-44
2022/01/17 08:01:11;;;;;;;;;56.50;43.50;;;;;;;;5083574;27;51570;-43
2022/01/17 08:03:55;;;;;;;;;51.25;40.50;;;;;;;;5084786;27;51106;-44
2022/01/17 08:06:40;;;;;;;;;53.00;41.00;;;;;;;;5088264;27;51279;-42
2022/01/17 08:09:32;;;;;;;;;41.25;33.25;;;;;;;;5079888;27;51116;-43
2022/01/17 08:12:17;;;;;;;;;46.50;38.00;;;;;;;;5081520;27;51111;-43
2022/01/17 08:15:04;;;;;;;;;48.75;38.75;;;;;;;;5081082;27;51177;-44
2022/01/17 08:17:48;;;;;;;;;47.25;38.25;;;;;;;;5081254;27;51649;-44
2022/01/17 08:20:33;;;;;;;;;46.50;36.50;;;;;;;;5080548;27;51040;-44
2022/01/17 08:23:17;;;;;;;;;43.00;35.75;;;;;;;;5081306;27;51166;-41
2022/01/17 08:26:02;;;;;;;;;42.00;35.50;;;;;;;;5079739;27;51519;-45
2022/01/17 08:28:47;;;;;;;;;44.00;36.50;;;;;;;;5079130;27;51079;-42
2022/01/17 08:31:31;;;;;;;;;43.50;34.25;;;;;;;;5078129;27;51139;-42
2022/01/17 08:34:17;;;;;;;;;43.50;35.50;;;;;;;;5080701;27;51112;-43
2022/01/17 08:37:02;;;;;;;;;40.25;33.50;;;;;;;;5072161;27;51372;-42
2022/01/17 08:39:46;;;;;;;;;37.00;32.50;;;;;;;;5078794;27;51684;-42
2022/01/17 08:42:33;;;;;;;;;35.00;31.00;;;;;;;;5081905;27;51143;-41
2022/01/17 08:45:19;;;;;;;;;39.00;31.50;;;;;;;;5079870;27;51105;-41
2022/01/17 08:48:05;;;;;;;;;38.75;33.00;;;;;;;;5080665;27;51136;-43
2022/01/17 08:50:50;;;;;;;;;35.00;31.00;;;;;;;;5078914;27;51573;-41
2022/01/17 08:53:35;;;;;;;;;38.25;31.00;;;;;;;;5078116;27;51065;-40
2022/01/17 08:56:20;;;;;;;;;38.25;29.50;;;;;;;;5072365;27;51701;-41
2022/01/17 08:59:20;;;;;;;;;31.00;28.75;;;;;;;;5069620;27;51272;-43
2022/01/17 09:02:06;;;;;;;;;29.25;24.00;;;;;;;;5072205;27;51633;-42
2022/01/17 09:05:02;;;;;;;;;24.00;22.75;;;;;;;;5064212;27;51462;-41
2022/01/17 09:07:48;;;;;;;;;37.00;30.00;;;;;;;;5069354;27;51571;-41
2022/01/17 09:10:32;;;;;;;;;33.25;28.75;;;;;;;;5067068;27;51233;-42
2022/01/17 09:13:18;;;;;;;;;30.50;27.75;;;;;;;;5069411;27;51207;-41
2022/01/17 09:16:13;;;;;;;;;41.50;31.25;;;;;;;;5079553;27;51107;-41
2022/01/17 09:19:00;;;;;;;;;35.75;28.50;;;;;;;;5080238;27;51166;-41
2022/01/17 09:21:44;;;;;;;;;30.50;26.00;;;;;;;;5079875;27;51095;-41
2022/01/17 09:24:31;;;;;;;;;35.00;27.50;;;;;;;;5084304;27;51056;-43
2022/01/17 09:27:18;;;;;;;;;33.75;27.00;;;;;;;;5080235;27;51033;-42
2022/01/17 09:30:08;;;;;;;;;36.50;30.50;;;;;;;;5079887;27;51578;-41
2022/01/17 09:33:13;;;;;;;;;33.75;28.75;;;;;;;;5072765;27;51759;-42
2022/01/17 09:35:59;;;;;;;;;33.25;28.00;;;;;;;;5076565;27;51162;-41
2022/01/17 09:38:45;;;;;;;;;34.25;28.50;;;;;;;;5079956;27;51158;-42
2022/01/17 09:41:31;;;;;;;;;39.00;31.50;;;;;;;;5080240;27;51480;-41
2022/01/17 09:44:35;;;;;;;;;30.25;26.50;;;;;;;;5074147;27;51106;-41
2022/01/17 09:47:19;;;;;;;;;33.75;28.25;;;;;;;;5074445;27;51055;-42
2022/01/17 09:50:17;;;;;;;;;32.00;26.75;;;;;;;;5078187;27;51033;-44
2022/01/17 09:53:09;;;;;;;;;38.50;31.00;;;;;;;;5079034;27;51146;-42
2022/01/17 09:55:53;;;;;;;;;37.25;31.50;;;;;;;;5075849;28;51481;-42
2022/01/17 09:58:39;;;;;;;;;34.25;28.75;;;;;;;;5073731;28;51770;-42
2022/01/17 10:01:39;;;;;;;;;36.50;30.75;;;;;;;;5072224;27;51160;-42
2022/01/17 10:04:23;;;;;;;;;31.00;28.25;;;;;;;;5076626;27;51013;-41
2022/01/17 10:07:10;;;;;;;;;34.00;29.00;;;;;;;;5075668;27;51112;-42
2022/01/17 10:09:59;;;;;;;;;39.00;29.75;;;;;;;;5069968;27;51246;-41
2022/01/17 10:12:44;;;;;;;;;36.00;30.00;;;;;;;;5080557;27;51626;-42
2022/01/17 10:15:43;;;;;;;;;33.00;29.00;;;;;;;;5074498;28;51136;-42
2022/01/17 10:18:49;;;;;;;;;30.00;28.00;;;;;;;;5079807;27;51104;-42
2022/01/17 10:21:48;;;;;;;;;37.00;29.50;;;;;;;;5080898;27;51578;-41
2022/01/17 10:24:48;;;;;;;;;35.75;29.75;;;;;;;;5081513;27;51650;-42
2022/01/17 10:28:07;;;;;;;;;29.00;27.00;;;;;;;;5071787;27;51121;-42
2022/01/17 10:34:52;;;;;;;;;31.00;27.00;;;;;;;;5081060;27;51124;-42
2022/01/17 10:37:27;;;;;;;;;32.25;26.50;;;;;;;;5074891;27;51191;-44
2022/01/17 10:40:14;;;;;;;;;29.75;27.00;;;;;;;;5078143;27;51183;-42
2022/01/17 10:43:01;;;;;;;;;31.50;27.00;;;;;;;;5077188;27;51110;-42
2022/01/17 10:45:52;;;;;;;;;28.00;25.00;;;;;;;;5080818;27;51194;-41
2022/01/17 10:48:38;;;;;;;;;27.25;25.00;;;;;;;;5076604;27;51401;-43
2022/01/17 10:51:29;;;;;;;;;29.25;27.00;;;;;;;;5073860;27;51591;-42
2022/01/17 10:54:18;;;;;;;;;31.00;28.00;;;;;;;;5081424;27;51309;-42
2022/01/17 10:57:04;;;;;;;;;32.00;27.75;;;;;;;;5082889;27;51158;-42
2022/01/17 10:59:52;;;;;;;;;26.50;22.75;;;;;;;;5083502;27;51208;-41
2022/01/17 11:02:39;;;;;;;;;28.50;26.25;;;;;;;;5085881;27;51054;-42
2022/01/17 11:05:27;;;;;;;;;26.75;22.50;;;;;;;;5085277;27;51603;-40
2022/01/17 11:08:16;;;;;;;;;30.75;25.75;;;;;;;;5081933;27;51185;-42
2022/01/17 11:11:01;;;;;;;;;25.50;23.00;;;;;;;;5081266;27;51174;-42
2022/01/17 11:13:49;;;;;;;;;26.75;25.00;;;;;;;;5082773;27;51190;-42
2022/01/17 11:16:36;;;;;;;;;27.00;25.00;;;;;;;;5083679;27;51680;-41
2022/01/17 11:22:26;;;;;;;;;29.50;27.00;;;;;;;;5077941;27;51290;-41
2022/01/17 11:25:12;;;;;;;;;29.25;25.50;;;;;;;;5080265;27;51095;-42
2022/01/17 11:28:02;;;;;;;;;25.25;24.00;;;;;;;;5080760;27;51184;-41
2022/01/17 11:30:49;;;;;;;;;29.50;26.25;;;;;;;;5082928;27;51142;-41
2022/01/17 11:33:46;;;;;;;;;27.25;25.25;;;;;;;;5082532;27;51095;-41
2022/01/17 11:36:32;;;;;;;;;30.25;26.00;;;;;;;;5085429;27;51127;-42
2022/01/17 11:39:20;;;;;;;;;27.00;22.75;;;;;;;;5081893;27;51126;-42
2022/01/17 11:42:07;;;;;;;;;19.75;19.75;;;;;;;;5082216;27;51891;-42
2022/01/17 11:44:52;;;;;;;;;28.00;26.00;;;;;;;;5082126;27;51088;-41
2022/01/17 11:48:06;;;;;;;;;28.00;26.25;;;;;;;;5083114;27;51305;-41
2022/01/17 11:50:52;;;;;;;;;31.50;28.50;;;;;;;;5081046;27;51434;-42
2022/01/17 11:53:40;;;;;;;;;32.75;28.75;;;;;;;;5078875;27;51118;-42
2022/01/17 11:56:35;;;;;;;;;29.50;27.75;;;;;;;;5067613;27;51010;-41
2022/01/17 11:59:38;;;;;;;;;29.50;25.75;;;;;;;;5080134;27;51165;-42
2022/01/17 12:02:38;;;;;;;;;40.00;34.75;;;;;;;;5080148;27;51267;-42
2022/01/17 12:05:28;;;;;;;;;39.25;30.25;;;;;;;;5079293;27;51155;-42
2022/01/17 12:08:17;;;;;;;;;34.00;30.50;;;;;;;;5079860;27;50927;-43
2022/01/17 12:11:07;;;;;;;;;31.25;28.50;;;;;;;;5083240;27;51173;-42
2022/01/17 12:14:15;;;;;;;;;29.25;23.00;;;;;;;;5080859;27;51124;-42
2022/01/17 12:17:19;;;;;;;;;34.25;30.00;;;;;;;;5078518;27;51514;-43
2022/01/17 12:20:09;;;;;;;;;33.25;28.50;;;;;;;;5074179;27;51118;-41
2022/01/17 12:23:01;;;;;;;;;28.75;27.00;;;;;;;;5077382;27;51596;-44
2022/01/17 12:25:45;;;;;;;;;32.00;28.25;;;;;;;;5068774;27;51183;-41
2022/01/17 12:28:32;;;;;;;;;27.00;24.75;;;;;;;;5073868;27;51555;-42
2022/01/17 12:31:39;;;;;;;;;28.50;26.25;;;;;;;;5077101;27;51210;-42
2022/01/17 12:34:27;;;;;;;;;32.25;29.50;;;;;;;;5077602;27;51613;-42
2022/01/17 12:37:36;;;;;;;;;32.50;29.50;;;;;;;;5078130;27;51148;-41
2022/01/17 12:40:32;;;;;;;;;37.00;30.50;;;;;;;;5074573;27;51252;-42
2022/01/17 12:43:36;;;;;;;;;35.75;30.75;;;;;;;;5076974;27;51186;-41
2022/01/17 12:46:21;;;;;;;;;29.75;29.25;;;;;;;;5077835;27;51063;-42
2022/01/17 12:49:09;;;;;;;;;33.25;27.75;;;;;;;;5078221;27;51228;-41
2022/01/17 12:52:03;;;;;;;;;37.50;31.25;;;;;;;;5076744;27;51229;-42
2022/01/17 12:54:49;;;;;;;;;35.50;28.75;;;;;;;;5070400;27;51168;-41
2022/01/17 12:57:43;;;;;;;;;36.25;29.25;;;;;;;;5081051;27;51167;-44
2022/01/17 13:00:40;;;;;;;;;33.75;28.25;;;;;;;;5077198;27;51542;-42
2022/01/17 13:03:26;;;;;;;;;36.75;29.00;;;;;;;;5079169;27;51158;-41
2022/01/17 13:06:18;;;;;;;;;32.25;26.75;;;;;;;;5079660;27;51154;-42
2022/01/17 13:09:11;;;;;;;;;31.00;28.50;;;;;;;;5079061;27;51102;-41
2022/01/17 13:11:57;;;;;;;;;34.50;29.25;;;;;;;;5077708;27;51099;-41
2022/01/17 13:14:42;;;;;;;;;33.25;29.50;;;;;;;;5082787;27;51618;-41
2022/01/17 13:17:32;;;;;;;;;33.00;29.50;;;;;;;;5079139;27;51009;-42
2022/01/17 13:20:19;;;;;;;;;33.75;29.00;;;;;;;;5079595;27;51176;-41
2022/01/17 13:23:54;;;;;;;;;37.25;32.50;;;;;;;;5077907;27;51058;-41
2022/01/17 13:26:52;;;;;;;;;35.00;30.50;;;;;;;;5071415;27;51626;-41
2022/01/17 13:29:46;;;;;;;;;31.50;30.25;;;;;;;;5079096;27;51155;-41
2022/01/17 13:32:36;;;;;;;;;35.50;30.75;;;;;;;;5081106;27;51190;-42
2022/01/17 13:35:22;;;;;;;;;30.25;29.00;;;;;;;;5078074;27;51390;-42
2022/01/17 13:38:22;;;;;;;;;37.00;28.25;;;;;;;;5081683;27;51183;-41
2022/01/17 13:41:25;;;;;;;;;30.00;28.25;;;;;;;;5081334;27;51526;-41
2022/01/17 13:44:10;;;;;;;;;33.00;28.50;;;;;;;;5070829;27;51144;-41
2022/01/17 13:47:00;;;;;;;;;34.25;30.50;;;;;;;;5065423;27;51245;-43
2022/01/17 13:49:59;;;;;;;;;30.75;28.00;;;;;;;;5071965;27;51133;-41
2022/01/17 13:52:46;;;;;;;;;40.75;31.25;;;;;;;;5068629;27;51612;-42
2022/01/17 13:55:30;;;;;;;;;38.25;30.75;;;;;;;;5076013;27;51051;-42
2022/01/17 13:58:29;;;;;;;;;35.75;30.75;;;;;;;;5079282;27;51094;-41
2022/01/17 14:01:21;;;;;;;;;32.75;29.00;;;;;;;;5077812;27;51110;-42
2022/01/17 14:04:30;;;;;;;;;32.00;28.00;;;;;;;;5078529;27;51196;-43
2022/01/17 14:07:27;;;;;;;;;31.50;28.75;;;;;;;;5078707;27;51308;-42
2022/01/17 14:10:20;;;;;;;;;28.00;24.00;;;;;;;;5079045;28;51211;-43
2022/01/17 14:13:10;;;;;;;;;40.75;32.00;;;;;;;;5078842;28;51340;-42
2022/01/17 14:16:09;;;;;;;;;35.50;29.00;;;;;;;;5077215;28;51167;-42
2022/01/17 14:19:04;;;;;;;;;18.25;15.75;;;;;;;;5079328;28;51091;-42
2022/01/17 14:22:07;;;;;;;;;29.75;26.50;;;;;;;;5077797;27;51310;-41
2022/01/17 14:24:56;;;;;;;;;35.00;29.75;;;;;;;;5079142;27;51073;-42
2022/01/17 14:28:10;;;;;;;;;37.50;29.75;;;;;;;;5082816;27;51606;-41
2022/01/17 14:31:21;;;;;;;;;33.50;27.75;;;;;;;;5083162;27;51084;-41
2022/01/17 14:34:23;;;;;;;;;28.50;23.75;;;;;;;;5073273;27;51179;-42
2022/01/17 14:37:09;;;;;;;;;28.00;23.25;;;;;;;;5085061;27;51118;-42
2022/01/17 14:40:03;;;;;;;;;21.75;21.00;;;;;;;;5083072;27;51142;-42
2022/01/17 14:42:48;;;;;;;;;23.00;22.75;;;;;;;;5082945;27;51111;-42
2022/01/17 14:45:33;;;;;;;;;26.75;23.00;;;;;;;;5083004;27;51601;-42
2022/01/17 14:48:22;;;;;;;;;20.75;18.75;;;;;;;;5077721;27;51228;-42
2022/01/17 14:51:14;;;;;;;;;27.00;24.00;;;;;;;;5081070;27;51068;-42
2022/01/17 14:54:07;;;;;;;;;22.25;20.00;;;;;;;;5083641;27;51139;-43
2022/01/17 15:00:40;;;;;;;;;20.00;19.75;;;;;;;;5081516;27;51542;-41
2022/01/17 15:03:47;;;;;;;;;25.00;21.25;;;;;;;;5078501;27;51207;-41
2022/01/17 15:06:43;;;;;;;;;22.00;21.00;;;;;;;;5080651;27;51660;-42
2022/01/17 15:09:52;;;;;;;;;25.50;21.50;;;;;;;;5082400;27;51119;-42
2022/01/17 15:12:45;;;;;;;;;22.00;22.00;;;;;;;;5081862;27;51095;-42
2022/01/17 15:15:30;;;;;;;;;23.25;21.75;;;;;;;;5081000;27;51159;-41
2022/01/17 15:18:16;;;;;;;;;27.50;22.00;;;;;;;;5084144;27;51101;-42
2022/01/17 15:21:00;;;;;;;;;25.50;21.25;;;;;;;;5081475;27;51403;-42
2022/01/17 15:23:44;;;;;;;;;24.75;20.75;;;;;;;;5079530;27;51092;-43
2022/01/17 15:26:29;;;;;;;;;26.75;23.25;;;;;;;;5080932;27;51134;-42
2022/01/17 15:29:21;;;;;;;;;28.50;25.00;;;;;;;;5075588;27;51128;-42
2022/01/17 15:32:14;;;;;;;;;29.00;21.50;;;;;;;;5072447;27;51918;-42
2022/01/17 15:35:00;;;;;;;;;24.25;23.25;;;;;;;;5078560;27;51129;-42
2022/01/17 15:37:44;;;;;;;;;25.75;19.50;;;;;;;;5081113;27;51168;-42
2022/01/17 15:40:34;;;;;;;;;24.75;20.75;;;;;;;;5079318;27;51143;-42
2022/01/17 15:43:18;;;;;;;;;25.00;22.00;;;;;;;;5080096;27;51123;-43
2022/01/17 15:46:04;;;;;;;;;26.25;19.50;;;;;;;;5080475;27;51496;-41
2022/01/17 15:48:49;;;;;;;;;22.50;20.00;;;;;;;;5083484;27;51115;-41
2022/01/17 15:51:48;;;;;;;;;28.00;23.25;;;;;;;;5080719;27;51684;-42
2022/01/17 15:54:36;;;;;;;;;23.50;21.00;;;;;;;;5081186;27;51111;-41
2022/01/17 15:57:24;;;;;;;;;23.00;18.75;;;;;;;;5081988;27;51396;-42
2022/01/17 16:00:42;;;;;;;;;27.50;24.25;;;;;;;;5081213;27;51200;-42
2022/01/17 16:03:27;;;;;;;;;26.00;23.50;;;;;;;;5080781;27;51592;-43
2022/01/17 16:06:11;;;;;;;;;23.50;21.00;;;;;;;;5077811;27;51529;-42
2022/01/17 16:09:19;;;;;;;;;20.50;18.25;;;;;;;;5080530;27;51299;-42
2022/01/17 16:12:04;;;;;;;;;23.50;19.75;;;;;;;;5082648;27;51481;-41
2022/01/17 16:14:49;;;;;;;;;25.25;22.50;;;;;;;;5075665;27;51102;-41
2022/01/17 16:17:34;;;;;;;;;23.75;22.00;;;;;;;;5069023;27;51112;-42
2022/01/17 16:20:18;;;;;;;;;24.00;22.00;;;;;;;;5080992;27;51086;-41
2022/01/17 16:23:03;;;;;;;;;23.25;22.00;;;;;;;;5078731;27;51550;-42
2022/01/17 16:25:49;;;;;;;;;24.50;23.00;;;;;;;;5080289;27;51092;-41
2022/01/17 16:28:36;;;;;;;;;28.00;23.25;;;;;;;;5079874;27;51610;-42
2022/01/17 16:31:23;;;;;;;;;30.50;25.75;;;;;;;;5070263;27;51064;-41
2022/01/17 16:34:10;;;;;;;;;27.75;25.75;;;;;;;;5081659;27;51159;-43
2022/01/17 16:37:01;;;;;;;;;25.75;22.25;;;;;;;;5079647;27;51645;-42
2022/01/17 16:40:01;;;;;;;;;23.25;21.00;;;;;;;;5075025;27;51165;-42
2022/01/17 16:42:47;;;;;;;;;29.25;24.00;;;;;;;;5079979;27;51194;-42
2022/01/17 16:45:31;;;;;;;;;25.00;21.50;;;;;;;;5075454;27;51258;-42
2022/01/17 16:48:16;;;;;;;;;28.00;23.75;;;;;;;;5079649;27;51080;-41
2022/01/17 16:51:01;;;;;;;;;26.50;24.50;;;;;;;;5077537;27;51149;-42
2022/01/17 16:53:57;;;;;;;;;24.50;23.00;;;;;;;;5077127;27;51592;-42
2022/01/17 16:56:43;;;;;;;;;25.75;23.25;;;;;;;;5077197;27;51199;-42
2022/01/17 16:59:31;;;;;;;;;29.00;26.75;;;;;;;;5077823;27;51088;-41
2022/01/17 17:02:16;;;;;;;;;23.75;14.75;;;;;;;;5073622;27;51565;-42
2022/01/17 17:05:01;;;;;;;;;26.75;23.00;;;;;;;;5077495;27;51266;-43
2022/01/17 17:07:46;;;;;;;;;27.75;22.25;;;;;;;;5075391;27;52017;-42
2022/01/17 17:10:42;;;;;;;;;30.75;23.75;;;;;;;;5076703;27;51202;-43
2022/01/17 17:13:27;;;;;;;;;30.50;24.75;;;;;;;;5077826;27;51561;-43
2022/01/17 17:16:26;;;;;;;;;29.00;24.00;;;;;;;;5079834;27;51144;-42
2022/01/17 17:19:17;;;;;;;;;26.50;22.50;;;;;;;;5078638;27;51226;-42
2022/01/17 17:22:15;;;;;;;;;24.75;21.75;;;;;;;;5079576;27;51144;-41
2022/01/17 17:25:01;;;;;;;;;26.00;22.00;;;;;;;;5080369;27;51171;-42
2022/01/17 17:27:48;;;;;;;;;23.75;21.50;;;;;;;;5079046;27;51322;-42
2022/01/17 17:30:33;;;;;;;;;29.00;25.75;;;;;;;;5080038;27;51214;-42
2022/01/17 17:33:20;;;;;;;;;26.25;24.50;;;;;;;;5071770;27;51132;-42
2022/01/17 17:36:11;;;;;;;;;28.00;24.00;;;;;;;;5076865;27;51188;-41
2022/01/17 17:38:56;;;;;;;;;28.50;26.50;;;;;;;;5070714;27;51176;-42
2022/01/17 17:41:45;;;;;;;;;25.75;24.50;;;;;;;;5075618;27;51111;-42
2022/01/17 17:44:33;;;;;;;;;26.00;22.50;;;;;;;;5070414;27;51051;-42
2022/01/17 17:47:22;;;;;;;;;25.50;22.25;;;;;;;;5074998;27;51172;-42
2022/01/17 17:50:13;;;;;;;;;27.25;22.25;;;;;;;;5067146;27;51161;-42
2022/01/17 17:53:07;;;;;;;;;27.00;25.00;;;;;;;;5075502;27;51104;-41
2022/01/17 17:55:51;;;;;;;;;27.75;22.75;;;;;;;;5072272;27;51138;-42
2022/01/17 17:58:37;;;;;;;;;30.25;26.50;;;;;;;;5078324;27;51161;-42
2022/01/17 18:01:22;;;;;;;;;34.25;27.25;;;;;;;;5077930;27;51207;-42
2022/01/17 18:04:10;;;;;;;;;29.50;28.00;;;;;;;;5077741;27;51537;-42
2022/01/17 18:06:54;;;;;;;;;25.75;25.75;;;;;;;;5079428;27;51479;-43
2022/01/17 18:10:04;;;;;;;;;29.50;24.50;;;;;;;;5079749;27;51146;-42
2022/01/17 18:12:48;;;;;;;;;30.75;25.75;;;;;;;;5074129;27;51276;-42
2022/01/17 18:15:36;;;;;;;;;24.00;23.00;;;;;;;;5076321;27;51309;-42
2022/01/17 18:18:20;;;;;;;;;27.00;25.75;;;;;;;;5071759;27;51552;-42
2022/01/17 18:21:09;;;;;;;;;24.25;23.25;;;;;;;;5075032;27;51050;-42
2022/01/17 18:23:59;;;;;;;;;32.00;25.25;;;;;;;;5076958;27;51267;-42
2022/01/17 18:26:45;;;;;;;;;28.50;25.75;;;;;;;;5073526;27;51023;-42
2022/01/17 18:29:33;;;;;;;;;29.50;26.50;;;;;;;;5074763;27;51590;-43
2022/01/17 18:32:20;;;;;;;;;20.75;19.25;;;;;;;;5079090;27;51130;-42
2022/01/17 18:35:09;;;;;;;;;31.00;24.25;;;;;;;;5078932;27;51613;-42
2022/01/17 18:38:06;;;;;;;;;34.25;27.75;;;;;;;;5077156;27;51215;-42
2022/01/17 18:40:53;;;;;;;;;28.50;25.00;;;;;;;;5078899;27;51185;-42
2022/01/17 18:43:48;;;;;;;;;27.00;25.50;;;;;;;;5076442;27;51377;-43
2022/01/17 18:46:33;;;;;;;;;31.00;26.75;;;;;;;;5075168;27;51137;-42
2022/01/17 18:49:22;;;;;;;;;31.50;28.25;;;;;;;;5068513;27;51255;-43
2022/01/17 18:52:12;;;;;;;;;28.50;27.00;;;;;;;;5076762;27;51157;-42
2022/01/17 18:55:17;;;;;;;;;32.25;27.75;;;;;;;;5077643;27;51162;-42
2022/01/17 18:58:12;;;;;;;;;24.75;22.25;;;;;;;;5078521;27;51085;-43
2022/01/17 19:00:57;;;;;;;;;29.00;26.75;;;;;;;;5078325;27;52395;-42
2022/01/17 19:03:43;;;;;;;;;25.50;23.00;;;;;;;;5077564;27;51217;-42
2022/01/17 19:06:30;;;;;;;;;31.25;25.75;;;;;;;;5072202;27;51001;-42
2022/01/17 19:09:14;;;;;;;;;26.25;25.50;;;;;;;;5077256;27;51407;-41
2022/01/17 19:12:27;;;;;;;;;29.50;25.25;;;;;;;;5074882;27;51773;-43
2022/01/17 19:15:13;;;;;;;;;28.00;25.50;;;;;;;;5077592;27;51196;-42
2022/01/17 19:18:22;;;;;;;;;29.25;26.25;;;;;;;;5077467;27;51147;-44
2022/01/17 19:21:17;;;;;;;;;27.50;24.25;;;;;;;;5080193;27;51561;-42
2022/01/17 19:24:06;;;;;;;;;25.50;24.00;;;;;;;;5080656;27;51151;-43
2022/01/17 19:27:02;;;;;;;;;29.50;23.00;;;;;;;;5078776;27;51576;-42
2022/01/17 19:30:15;;;;;;;;;27.25;23.25;;;;;;;;5076201;27;51575;-42
2022/01/17 19:33:03;;;;;;;;;32.75;26.75;;;;;;;;5079264;27;51350;-42
2022/01/17 19:35:58;;;;;;;;;31.00;27.75;;;;;;;;5077850;27;51115;-42
2022/01/17 19:38:46;;;;;;;;;29.75;24.25;;;;;;;;5082143;27;51132;-41
2022/01/17 19:41:32;;;;;;;;;13.50;12.00;;;;;;;;5081159;27;51045;-42
2022/01/17 19:44:18;;;;;;;;;30.50;24.00;;;;;;;;5080989;27;51382;-43